createdAt,value
2023-05-19T00:00:28.930Z,13.59
2023-05-19T00:05:33.626Z,14.52
2023-05-19T00:10:40.142Z,14.47
2023-05-19T00:15:44.744Z,14.36
2023-05-19T00:20:48.736Z,14.15
2023-05-19T00:25:54.212Z,12.01
2023-05-19T00:30:58.089Z,14.20
2023-05-19T00:36:03.540Z,11.53
2023-05-19T00:41:09.092Z,13.59
2023-05-19T00:46:13.107Z,11.95
2023-05-19T00:51:19.202Z,11.45
2023-05-19T00:56:24.868Z,11.51
2023-05-19T01:01:29.324Z,13.02
2023-05-19T01:06:33.465Z,12.90
2023-05-19T01:11:38.628Z,12.89
2023-05-19T01:16:47.978Z,12.67
2023-05-19T01:22:28.981Z,13.24
2023-05-19T01:27:54.702Z,13.09
2023-05-19T01:33:02.965Z,12.52
2023-05-19T01:38:10.255Z,12.93
2023-05-19T01:43:23.548Z,10.44
2023-05-19T01:48:30.086Z,12.16
2023-05-19T01:53:34.925Z,10.43
2023-05-19T01:58:44.419Z,9.58
2023-05-19T02:04:12.538Z,12.67
2023-05-19T02:09:22.831Z,11.99
2023-05-19T02:14:31.131Z,12.69
2023-05-19T02:19:39.516Z,10.49
2023-05-19T02:24:44.549Z,10.74
2023-05-19T02:29:48.396Z,11.30
2023-05-19T02:34:53.695Z,11.85
2023-05-19T02:39:57.569Z,12.00
2023-05-19T02:45:01.909Z,10.27
2023-05-19T02:50:09.346Z,12.01
2023-05-19T02:55:17.380Z,9.86
2023-05-19T03:00:21.590Z,9.00
2023-05-19T03:05:26.878Z,9.77
2023-05-19T03:10:30.908Z,11.56
2023-05-19T03:15:35.518Z,11.88
2023-05-19T03:20:43.731Z,11.47
2023-05-19T03:25:47.957Z,9.84
2023-05-19T03:30:52.395Z,11.21
2023-05-19T03:36:02.088Z,10.65
2023-05-19T03:41:10.286Z,11.31
2023-05-19T03:46:17.409Z,9.38
2023-05-19T03:51:35.158Z,11.66
2023-05-19T03:56:48.177Z,11.46
2023-05-19T04:01:52.999Z,11.59
2023-05-19T04:06:58.566Z,9.93
2023-05-19T04:12:03.833Z,9.43
2023-05-19T04:17:07.858Z,10.29
2023-05-19T04:22:13.390Z,9.75
2023-05-19T04:27:19.157Z,10.98
2023-05-19T04:32:23.672Z,11.09
2023-05-19T04:37:30.904Z,10.58
2023-05-19T04:42:35.996Z,9.65
2023-05-19T04:47:42.044Z,8.67
2023-05-19T04:52:47.728Z,11.07
2023-05-19T04:57:52.395Z,9.32
2023-05-19T05:02:58.221Z,11.29
2023-05-19T05:08:07.108Z,10.98
2023-05-19T05:13:17.652Z,11.38
2023-05-19T05:18:22.350Z,11.42
2023-05-19T05:23:29.244Z,11.11
2023-05-19T05:28:34.108Z,11.24
2023-05-19T05:33:39.986Z,11.65
2023-05-19T05:38:47.003Z,8.94
2023-05-19T05:43:51.231Z,11.37
2023-05-19T05:48:56.494Z,11.89
2023-05-19T05:54:03.950Z,11.51
2023-05-19T05:59:13.704Z,12.06
2023-05-19T06:04:19.064Z,11.86
2023-05-19T06:09:24.458Z,10.44
2023-05-19T06:14:29.318Z,12.49
2023-05-19T06:20:02.531Z,12.44
2023-05-19T06:25:10.175Z,9.32
2023-05-19T06:30:15.481Z,12.84
2023-05-19T06:35:42.041Z,13.06
2023-05-19T06:40:47.725Z,13.36
2023-05-19T06:45:51.801Z,11.97
2023-05-19T06:50:56.293Z,13.43
2023-05-19T06:56:03.019Z,13.70
2023-05-19T07:01:10.435Z,13.38
2023-05-19T07:06:20.507Z,14.32
2023-05-19T07:11:26.432Z,12.92
2023-05-19T07:16:30.982Z,13.60
2023-05-19T07:21:34.951Z,14.64
2023-05-19T07:26:40.318Z,14.60
2023-05-19T07:31:44.429Z,13.34
2023-05-19T07:36:50.803Z,14.76
2023-05-19T07:41:56.234Z,14.13
2023-05-19T07:47:00.944Z,14.99
2023-05-19T07:52:06.750Z,15.38
2023-05-19T07:57:12.197Z,13.03
2023-05-19T08:02:17.684Z,14.15
2023-05-19T08:07:21.797Z,15.54
2023-05-19T08:12:27.389Z,14.76
2023-05-19T08:17:31.356Z,15.82
2023-05-19T08:22:35.394Z,15.57
2023-05-19T08:27:40.780Z,14.23
2023-05-19T08:32:47.722Z,13.34
2023-05-19T08:37:56.028Z,13.31
2023-05-19T08:43:02.208Z,16.22
2023-05-19T08:48:07.484Z,15.22
2023-05-19T08:58:44.269Z,15.80
2023-05-19T09:03:50.291Z,16.21
2023-05-19T09:08:54.557Z,15.38
2023-05-19T09:14:05.555Z,13.63
2023-05-19T09:19:18.275Z,15.23
2023-05-19T09:24:26.929Z,14.26
2023-05-19T09:29:39.913Z,16.48
2023-05-19T09:34:44.243Z,14.15
2023-05-19T09:39:52.281Z,16.09
2023-05-19T09:45:04.130Z,16.66
2023-05-19T09:50:10.653Z,16.63
2023-05-19T09:55:20.097Z,15.68
2023-05-19T10:00:26.862Z,15.18
2023-05-19T10:05:31.506Z,16.57
2023-05-19T10:10:35.849Z,16.87
2023-05-19T10:15:57.426Z,16.95
2023-05-19T10:21:04.142Z,16.50
2023-05-19T10:26:09.350Z,16.99
2023-05-19T10:31:20.682Z,16.92
2023-05-19T10:36:38.808Z,17.25
2023-05-19T10:41:55.096Z,16.96
2023-05-19T10:47:00.919Z,15.44
2023-05-19T10:52:23.492Z,15.65
2023-05-19T10:57:28.873Z,15.55
2023-05-19T11:02:42.506Z,15.36
2023-05-19T11:08:02.611Z,15.72
2023-05-19T11:13:07.188Z,17.40
2023-05-19T11:18:16.648Z,17.50
2023-05-19T11:23:23.251Z,17.74
2023-05-19T11:28:29.468Z,15.04
2023-05-19T11:33:35.278Z,17.14
2023-05-19T11:38:40.032Z,16.38
2023-05-19T11:43:44.280Z,17.70
2023-05-19T11:48:50.607Z,17.34
2023-05-19T11:53:54.880Z,17.27
2023-05-19T11:58:59.107Z,16.69
2023-05-19T12:04:09.879Z,15.51
2023-05-19T12:09:14.594Z,17.78
2023-05-19T12:14:18.715Z,17.81
2023-05-19T12:19:26.771Z,17.37
2023-05-19T12:24:34.254Z,16.74
2023-05-19T12:29:39.780Z,17.69
2023-05-19T12:34:46.935Z,18.19
2023-05-19T12:39:52.150Z,18.07
2023-05-19T12:44:57.687Z,17.76
2023-05-19T12:50:09.440Z,16.25
2023-05-19T12:55:16.508Z,17.78
2023-05-19T13:00:22.811Z,16.51
2023-05-19T13:05:29.027Z,16.10
2023-05-19T13:10:33.573Z,17.60
2023-05-19T13:15:40.733Z,17.66
2023-05-19T13:20:49.417Z,17.39
2023-05-19T13:25:53.376Z,17.53
2023-05-19T13:30:57.621Z,17.48
2023-05-19T13:36:03.648Z,17.17
2023-05-19T13:41:09.422Z,16.61
2023-05-19T13:46:14.780Z,17.23
2023-05-19T13:51:20.300Z,15.56
2023-05-19T13:56:26.296Z,17.69
2023-05-19T14:01:30.560Z,16.41
2023-05-19T14:06:37.023Z,17.49
2023-05-19T14:11:44.459Z,15.67
2023-05-19T14:16:59.742Z,14.97
2023-05-19T14:22:05.878Z,15.11
2023-05-19T14:27:10.535Z,15.76
2023-05-19T14:32:23.501Z,16.29
2023-05-19T14:37:32.535Z,17.45
2023-05-19T14:42:36.713Z,15.03
2023-05-19T14:47:40.935Z,16.43
2023-05-19T14:52:47.269Z,16.45
2023-05-19T14:57:51.538Z,17.93
2023-05-19T15:02:58.091Z,17.98
2023-05-19T15:08:06.100Z,16.87
2023-05-19T15:13:12.221Z,18.01
2023-05-19T15:18:20.239Z,17.42
2023-05-19T15:23:26.086Z,17.02
2023-05-19T15:28:30.129Z,15.95
2023-05-19T15:33:34.189Z,18.21
2023-05-19T15:38:39.876Z,16.68
2023-05-19T15:43:46.644Z,15.77
2023-05-19T15:48:50.689Z,17.71
2023-05-19T15:53:56.193Z,18.39
2023-05-19T15:59:01.270Z,18.36
2023-05-19T16:04:06.177Z,18.13
2023-05-19T16:09:11.987Z,16.04
2023-05-19T16:14:16.327Z,17.58
2023-05-19T16:19:20.786Z,18.22
2023-05-19T16:24:29.741Z,16.68
2023-05-19T16:29:34.243Z,18.67
2023-05-19T16:34:38.555Z,17.26
2023-05-19T16:39:45.072Z,18.80
2023-05-19T16:44:53.991Z,17.66
2023-05-19T16:49:58.759Z,17.53
2023-05-19T16:55:04.525Z,19.01
2023-05-19T17:00:10.468Z,18.95
2023-05-19T17:05:14.848Z,18.72
2023-05-19T17:10:21.002Z,18.09
2023-05-19T17:15:25.377Z,18.77
2023-05-19T17:20:29.553Z,18.67
2023-05-19T17:25:35.942Z,18.05
2023-05-19T17:30:41.382Z,18.91
2023-05-19T17:35:46.637Z,16.67
2023-05-19T17:40:54.386Z,16.15
2023-05-19T17:46:00.287Z,17.05
2023-05-19T17:51:07.461Z,17.92
2023-05-19T17:56:13.893Z,16.98
2023-05-19T18:01:18.367Z,17.81
2023-05-19T18:06:23.268Z,17.79
2023-05-19T18:11:29.297Z,17.30
2023-05-19T18:16:35.416Z,18.60
2023-05-19T18:21:39.814Z,17.52
2023-05-19T18:26:47.911Z,18.54
2023-05-19T18:31:52.148Z,15.92
2023-05-19T18:36:56.437Z,17.65
2023-05-19T18:42:02.026Z,16.07
2023-05-19T18:47:06.680Z,18.27
2023-05-19T18:52:10.746Z,17.43
2023-05-19T18:57:16.792Z,16.85
2023-05-19T19:02:20.933Z,16.86
2023-05-19T19:07:25.652Z,17.49
2023-05-19T19:12:31.045Z,17.38
2023-05-19T19:17:35.668Z,17.50
2023-05-19T19:22:42.460Z,17.06
2023-05-19T19:27:48.129Z,15.59
2023-05-19T19:32:53.755Z,15.51
2023-05-19T19:37:58.614Z,14.89
2023-05-19T19:43:04.236Z,15.75
2023-05-19T19:48:08.618Z,16.47
2023-05-19T19:53:12.575Z,15.51
2023-05-19T19:58:18.388Z,13.68
2023-05-19T20:03:22.865Z,14.90
2023-05-19T20:08:28.711Z,16.36
2023-05-19T20:13:35.439Z,16.20
2023-05-19T20:18:40.059Z,13.89
2023-05-19T20:23:44.317Z,12.78
2023-05-19T20:28:50.386Z,15.22
2023-05-19T20:33:54.600Z,15.70
2023-05-19T20:38:58.577Z,14.52
2023-05-19T20:44:04.341Z,12.88
2023-05-19T20:49:08.392Z,14.35
2023-05-19T20:54:12.828Z,15.74
2023-05-19T20:59:18.570Z,14.24
2023-05-19T21:04:22.932Z,14.19
2023-05-19T21:09:27.664Z,12.80
2023-05-19T21:14:33.196Z,15.62
2023-05-19T21:19:38.536Z,15.81
2023-05-19T21:24:42.705Z,15.70
2023-05-19T21:29:48.391Z,15.98
2023-05-19T21:34:52.587Z,15.70
2023-05-19T21:39:56.746Z,14.41
2023-05-19T21:45:02.315Z,15.11
2023-05-19T21:50:07.462Z,15.80
2023-05-19T21:55:11.854Z,13.90
2023-05-19T22:00:17.437Z,15.68
2023-05-19T22:05:21.626Z,14.96
2023-05-19T22:10:28.751Z,15.42
2023-05-19T22:15:34.245Z,13.13
2023-05-19T22:20:38.618Z,15.20
2023-05-19T22:25:42.732Z,13.58
2023-05-19T22:30:48.294Z,14.02
2023-05-19T22:35:52.756Z,14.72
2023-05-19T22:40:58.948Z,13.02
2023-05-19T22:46:04.683Z,12.03
2023-05-19T22:51:08.620Z,15.01
2023-05-19T22:56:12.617Z,15.03
2023-05-19T23:01:20.551Z,11.92
2023-05-19T23:06:24.556Z,14.02
2023-05-19T23:11:28.635Z,14.98
2023-05-19T23:16:34.068Z,13.07
2023-05-19T23:21:38.347Z,13.88
2023-05-19T23:26:43.973Z,13.83
2023-05-19T23:31:49.545Z,14.34
2023-05-19T23:36:53.505Z,14.14
2023-05-19T23:41:57.555Z,13.54
2023-05-19T23:47:03.123Z,14.34
2023-05-19T23:52:08.031Z,12.91
2023-05-19T23:57:22.811Z,11.50
